sensor_id;sensor_type;location;lat;lon;timestamp;P1;durP1;ratioP1;P2;durP2;ratioP2
2618;SDS011;1319;52.346;13.096;2023-12-04T00:02:11;39.43;;;14.07;;
2618;SDS011;1319;52.346;13.096;2023-12-04T00:04:36;40.30;;;13.37;;
2618;SDS011;1319;52.346;13.096;2023-12-04T00:07:02;37.93;;;14.37;;
2618;SDS011;1319;52.346;13.096;2023-12-04T00:09:27;42.47;;;14.83;;
2618;SDS011;1319;52.346;13.096;2023-12-04T00:11:53;41.80;;;13.87;;
2618;SDS011;1319;52.346;13.096;2023-12-04T00:14:18;37.47;;;15.20;;
2618;SDS011;1319;52.346;13.096;2023-12-04T00:16:43;38.77;;;14.90;;
2618;SDS011;1319;52.346;13.096;2023-12-04T00:19:09;45.73;;;15.53;;
2618;SDS011;1319;52.346;13.096;2023-12-04T00:21:34;39.23;;;14.00;;
2618;SDS011;1319;52.346;13.096;2023-12-04T00:23:59;42.40;;;14.93;;
2618;SDS011;1319;52.346;13.096;2023-12-04T00:26:25;43.43;;;15.33;;
2618;SDS011;1319;52.346;13.096;2023-12-04T00:28:50;37.83;;;14.43;;
2618;SDS011;1319;52.346;13.096;2023-12-04T00:31:15;37.77;;;13.97;;
2618;SDS011;1319;52.346;13.096;2023-12-04T00:33:40;40.07;;;14.00;;
2618;SDS011;1319;52.346;13.096;2023-12-04T00:36:05;46.60;;;15.03;;
2618;SDS011;1319;52.346;13.096;2023-12-04T00:38:31;48.67;;;15.70;;
2618;SDS011;1319;52.346;13.096;2023-12-04T00:40:56;40.57;;;14.47;;
2618;SDS011;1319;52.346;13.096;2023-12-04T00:43:21;44.40;;;14.57;;
2618;SDS011;1319;52.346;13.096;2023-12-04T00:45:46;41.87;;;14.33;;
2618;SDS011;1319;52.346;13.096;2023-12-04T00:48:12;41.93;;;15.03;;
2618;SDS011;1319;52.346;13.096;2023-12-04T00:50:37;40.00;;;14.40;;
2618;SDS011;1319;52.346;13.096;2023-12-04T00:53:02;38.40;;;14.30;;
2618;SDS011;1319;52.346;13.096;2023-12-04T00:55:27;36.53;;;13.43;;
2618;SDS011;1319;52.346;13.096;2023-12-04T00:57:52;37.97;;;13.90;;
2618;SDS011;1319;52.346;13.096;2023-12-04T01:00:18;38.13;;;14.13;;
2618;SDS011;1319;52.346;13.096;2023-12-04T01:02:43;38.40;;;13.17;;
2618;SDS011;1319;52.346;13.096;2023-12-04T01:05:08;37.77;;;13.07;;
2618;SDS011;1319;52.346;13.096;2023-12-04T01:07:34;37.30;;;13.40;;
2618;SDS011;1319;52.346;13.096;2023-12-04T01:09:59;41.10;;;13.57;;
2618;SDS011;1319;52.346;13.096;2023-12-04T01:12:24;28.80;;;12.23;;
2618;SDS011;1319;52.346;13.096;2023-12-04T01:14:49;35.57;;;12.90;;
2618;SDS011;1319;52.346;13.096;2023-12-04T01:17:15;33.00;;;12.73;;
2618;SDS011;1319;52.346;13.096;2023-12-04T01:19:40;37.90;;;13.20;;
2618;SDS011;1319;52.346;13.096;2023-12-04T01:22:05;35.03;;;14.23;;
2618;SDS011;1319;52.346;13.096;2023-12-04T01:24:30;35.33;;;13.93;;
2618;SDS011;1319;52.346;13.096;2023-12-04T01:26:55;33.43;;;13.03;;
2618;SDS011;1319;52.346;13.096;2023-12-04T01:29:21;38.10;;;13.10;;
2618;SDS011;1319;52.346;13.096;2023-12-04T01:31:46;36.40;;;13.30;;
2618;SDS011;1319;52.346;13.096;2023-12-04T01:34:11;42.97;;;13.90;;
2618;SDS011;1319;52.346;13.096;2023-12-04T01:36:39;34.57;;;13.13;;
2618;SDS011;1319;52.346;13.096;2023-12-04T01:39:04;37.87;;;14.07;;
2618;SDS011;1319;52.346;13.096;2023-12-04T01:41:30;37.37;;;14.57;;
2618;SDS011;1319;52.346;13.096;2023-12-04T01:43:55;37.03;;;14.77;;
2618;SDS011;1319;52.346;13.096;2023-12-04T01:46:20;40.93;;;13.97;;
2618;SDS011;1319;52.346;13.096;2023-12-04T01:48:46;37.77;;;13.63;;
2618;SDS011;1319;52.346;13.096;2023-12-04T01:51:14;35.73;;;13.80;;
2618;SDS011;1319;52.346;13.096;2023-12-04T01:53:40;36.07;;;13.57;;
2618;SDS011;1319;52.346;13.096;2023-12-04T01:56:06;41.57;;;13.50;;
2618;SDS011;1319;52.346;13.096;2023-12-04T01:58:32;34.20;;;13.33;;
2618;SDS011;1319;52.346;13.096;2023-12-04T02:00:57;37.17;;;13.93;;
2618;SDS011;1319;52.346;13.096;2023-12-04T02:03:22;39.47;;;13.80;;
2618;SDS011;1319;52.346;13.096;2023-12-04T02:05:48;34.73;;;14.37;;
2618;SDS011;1319;52.346;13.096;2023-12-04T02:08:14;39.37;;;14.07;;
2618;SDS011;1319;52.346;13.096;2023-12-04T02:10:39;36.27;;;12.90;;
2618;SDS011;1319;52.346;13.096;2023-12-04T02:13:05;43.73;;;12.97;;
2618;SDS011;1319;52.346;13.096;2023-12-04T02:15:30;35.13;;;14.00;;
2618;SDS011;1319;52.346;13.096;2023-12-04T02:17:55;37.57;;;13.87;;
2618;SDS011;1319;52.346;13.096;2023-12-04T02:20:20;37.57;;;13.83;;
2618;SDS011;1319;52.346;13.096;2023-12-04T02:22:46;41.37;;;13.33;;
2618;SDS011;1319;52.346;13.096;2023-12-04T02:25:11;29.70;;;11.50;;
2618;SDS011;1319;52.346;13.096;2023-12-04T02:27:38;39.60;;;12.63;;
2618;SDS011;1319;52.346;13.096;2023-12-04T02:30:05;42.13;;;13.73;;
2618;SDS011;1319;52.346;13.096;2023-12-04T02:32:33;37.80;;;12.97;;
2618;SDS011;1319;52.346;13.096;2023-12-04T02:35:02;36.00;;;12.83;;
2618;SDS011;1319;52.346;13.096;2023-12-04T02:37:29;31.40;;;12.33;;
2618;SDS011;1319;52.346;13.096;2023-12-04T02:39:54;33.50;;;13.67;;
2618;SDS011;1319;52.346;13.096;2023-12-04T02:42:20;31.07;;;12.07;;
2618;SDS011;1319;52.346;13.096;2023-12-04T02:44:45;30.77;;;12.40;;
2618;SDS011;1319;52.346;13.096;2023-12-04T02:47:11;31.13;;;11.67;;
2618;SDS011;1319;52.346;13.096;2023-12-04T02:49:36;42.20;;;13.30;;
2618;SDS011;1319;52.346;13.096;2023-12-04T02:52:01;32.50;;;12.50;;
2618;SDS011;1319;52.346;13.096;2023-12-04T02:54:27;31.33;;;11.40;;
2618;SDS011;1319;52.346;13.096;2023-12-04T02:56:53;39.30;;;12.80;;
2618;SDS011;1319;52.346;13.096;2023-12-04T02:59:18;31.10;;;12.17;;
2618;SDS011;1319;52.346;13.096;2023-12-04T03:01:43;33.53;;;12.70;;
2618;SDS011;1319;52.346;13.096;2023-12-04T03:04:08;40.63;;;13.50;;
2618;SDS011;1319;52.346;13.096;2023-12-04T03:06:34;34.67;;;12.67;;
2618;SDS011;1319;52.346;13.096;2023-12-04T03:08:59;34.20;;;13.23;;
2618;SDS011;1319;52.346;13.096;2023-12-04T03:11:25;38.37;;;13.57;;
2618;SDS011;1319;52.346;13.096;2023-12-04T03:13:50;39.40;;;13.90;;
2618;SDS011;1319;52.346;13.096;2023-12-04T03:16:15;42.37;;;13.37;;
2618;SDS011;1319;52.346;13.096;2023-12-04T03:18:41;34.30;;;13.33;;
2618;SDS011;1319;52.346;13.096;2023-12-04T03:21:06;31.10;;;12.23;;
2618;SDS011;1319;52.346;13.096;2023-12-04T03:23:31;39.27;;;13.37;;
2618;SDS011;1319;52.346;13.096;2023-12-04T03:25:57;36.07;;;13.13;;
2618;SDS011;1319;52.346;13.096;2023-12-04T03:28:22;40.70;;;12.93;;
2618;SDS011;1319;52.346;13.096;2023-12-04T03:30:47;38.23;;;13.37;;
2618;SDS011;1319;52.346;13.096;2023-12-04T03:33:12;37.40;;;13.53;;
2618;SDS011;1319;52.346;13.096;2023-12-04T03:35:37;36.97;;;13.40;;
2618;SDS011;1319;52.346;13.096;2023-12-04T03:38:03;40.00;;;13.23;;
2618;SDS011;1319;52.346;13.096;2023-12-04T03:40:28;36.40;;;13.37;;
2618;SDS011;1319;52.346;13.096;2023-12-04T03:42:53;44.53;;;13.93;;
2618;SDS011;1319;52.346;13.096;2023-12-04T03:45:18;39.90;;;13.57;;
2618;SDS011;1319;52.346;13.096;2023-12-04T03:47:44;39.57;;;12.13;;
2618;SDS011;1319;52.346;13.096;2023-12-04T03:50:09;39.27;;;13.10;;
2618;SDS011;1319;52.346;13.096;2023-12-04T03:52:34;33.73;;;12.57;;
2618;SDS011;1319;52.346;13.096;2023-12-04T03:54:59;36.33;;;13.43;;
2618;SDS011;1319;52.346;13.096;2023-12-04T03:57:24;33.73;;;12.63;;
2618;SDS011;1319;52.346;13.096;2023-12-04T03:59:50;44.50;;;13.33;;
2618;SDS011;1319;52.346;13.096;2023-12-04T04:02:15;38.43;;;12.87;;
2618;SDS011;1319;52.346;13.096;2023-12-04T04:04:40;40.77;;;14.00;;
2618;SDS011;1319;52.346;13.096;2023-12-04T04:07:05;36.53;;;13.27;;
2618;SDS011;1319;52.346;13.096;2023-12-04T04:09:30;32.00;;;12.73;;
2618;SDS011;1319;52.346;13.096;2023-12-04T04:11:56;43.23;;;13.80;;
2618;SDS011;1319;52.346;13.096;2023-12-04T04:14:21;41.37;;;12.93;;
2618;SDS011;1319;52.346;13.096;2023-12-04T04:16:46;36.07;;;14.00;;
2618;SDS011;1319;52.346;13.096;2023-12-04T04:19:11;37.53;;;13.07;;
2618;SDS011;1319;52.346;13.096;2023-12-04T04:21:40;39.70;;;13.37;;
2618;SDS011;1319;52.346;13.096;2023-12-04T04:24:05;39.93;;;13.83;;
2618;SDS011;1319;52.346;13.096;2023-12-04T04:26:31;37.17;;;13.43;;
2618;SDS011;1319;52.346;13.096;2023-12-04T04:28:56;42.07;;;14.33;;
2618;SDS011;1319;52.346;13.096;2023-12-04T04:31:21;39.50;;;13.37;;
2618;SDS011;1319;52.346;13.096;2023-12-04T04:33:46;44.90;;;14.87;;
2618;SDS011;1319;52.346;13.096;2023-12-04T04:36:11;43.63;;;15.23;;
2618;SDS011;1319;52.346;13.096;2023-12-04T04:38:38;45.70;;;14.47;;
2618;SDS011;1319;52.346;13.096;2023-12-04T04:41:03;49.57;;;16.20;;
2618;SDS011;1319;52.346;13.096;2023-12-04T04:43:29;46.87;;;15.90;;
2618;SDS011;1319;52.346;13.096;2023-12-04T04:45:54;54.00;;;16.70;;
2618;SDS011;1319;52.346;13.096;2023-12-04T04:48:19;46.03;;;15.20;;
2618;SDS011;1319;52.346;13.096;2023-12-04T04:50:45;51.23;;;16.83;;
2618;SDS011;1319;52.346;13.096;2023-12-04T04:53:10;46.33;;;15.27;;
2618;SDS011;1319;52.346;13.096;2023-12-04T04:55:35;49.27;;;17.73;;
2618;SDS011;1319;52.346;13.096;2023-12-04T04:58:00;48.13;;;16.03;;
2618;SDS011;1319;52.346;13.096;2023-12-04T05:00:25;46.70;;;16.40;;
2618;SDS011;1319;52.346;13.096;2023-12-04T05:02:51;46.93;;;16.70;;
2618;SDS011;1319;52.346;13.096;2023-12-04T05:05:16;55.00;;;17.30;;
2618;SDS011;1319;52.346;13.096;2023-12-04T05:07:41;52.97;;;17.17;;
2618;SDS011;1319;52.346;13.096;2023-12-04T05:10:07;56.73;;;17.57;;
2618;SDS011;1319;52.346;13.096;2023-12-04T05:12:32;47.97;;;16.70;;
2618;SDS011;1319;52.346;13.096;2023-12-04T05:14:57;55.53;;;17.00;;
2618;SDS011;1319;52.346;13.096;2023-12-04T05:17:22;52.83;;;16.67;;
2618;SDS011;1319;52.346;13.096;2023-12-04T05:19:48;56.17;;;17.03;;
2618;SDS011;1319;52.346;13.096;2023-12-04T05:22:13;45.87;;;16.47;;
2618;SDS011;1319;52.346;13.096;2023-12-04T05:24:38;49.33;;;15.73;;
2618;SDS011;1319;52.346;13.096;2023-12-04T05:27:03;59.00;;;16.23;;
2618;SDS011;1319;52.346;13.096;2023-12-04T05:29:29;55.50;;;17.07;;
2618;SDS011;1319;52.346;13.096;2023-12-04T05:31:54;50.73;;;17.00;;
2618;SDS011;1319;52.346;13.096;2023-12-04T05:34:19;45.03;;;16.50;;
2618;SDS011;1319;52.346;13.096;2023-12-04T05:36:44;51.37;;;15.73;;
2618;SDS011;1319;52.346;13.096;2023-12-04T05:39:10;48.27;;;15.80;;
2618;SDS011;1319;52.346;13.096;2023-12-04T05:41:35;45.90;;;15.27;;
2618;SDS011;1319;52.346;13.096;2023-12-04T05:44:00;55.20;;;16.83;;
2618;SDS011;1319;52.346;13.096;2023-12-04T05:46:26;53.63;;;18.10;;
2618;SDS011;1319;52.346;13.096;2023-12-04T05:48:51;48.10;;;16.63;;
2618;SDS011;1319;52.346;13.096;2023-12-04T05:51:16;52.23;;;17.97;;
2618;SDS011;1319;52.346;13.096;2023-12-04T05:53:41;54.87;;;17.80;;
2618;SDS011;1319;52.346;13.096;2023-12-04T05:56:07;53.33;;;16.93;;
2618;SDS011;1319;52.346;13.096;2023-12-04T05:58:34;51.67;;;16.87;;
2618;SDS011;1319;52.346;13.096;2023-12-04T06:00:59;50.80;;;16.67;;
2618;SDS011;1319;52.346;13.096;2023-12-04T06:03:24;45.13;;;15.50;;
2618;SDS011;1319;52.346;13.096;2023-12-04T06:05:49;49.87;;;16.60;;
2618;SDS011;1319;52.346;13.096;2023-12-04T06:08:15;50.93;;;17.27;;
2618;SDS011;1319;52.346;13.096;2023-12-04T06:10:40;61.17;;;17.80;;
2618;SDS011;1319;52.346;13.096;2023-12-04T06:13:05;54.83;;;18.00;;
2618;SDS011;1319;52.346;13.096;2023-12-04T06:15:31;51.37;;;17.00;;
2618;SDS011;1319;52.346;13.096;2023-12-04T06:17:56;49.27;;;17.43;;
2618;SDS011;1319;52.346;13.096;2023-12-04T06:20:21;52.87;;;17.37;;
2618;SDS011;1319;52.346;13.096;2023-12-04T06:22:46;52.80;;;17.73;;
2618;SDS011;1319;52.346;13.096;2023-12-04T06:25:12;54.23;;;17.90;;
2618;SDS011;1319;52.346;13.096;2023-12-04T06:27:37;53.33;;;18.97;;
2618;SDS011;1319;52.346;13.096;2023-12-04T06:30:04;47.73;;;17.83;;
2618;SDS011;1319;52.346;13.096;2023-12-04T06:32:29;51.00;;;17.43;;
2618;SDS011;1319;52.346;13.096;2023-12-04T06:34:55;55.33;;;17.33;;
2618;SDS011;1319;52.346;13.096;2023-12-04T06:37:20;56.17;;;18.53;;
2618;SDS011;1319;52.346;13.096;2023-12-04T06:39:45;55.13;;;18.20;;
2618;SDS011;1319;52.346;13.096;2023-12-04T06:42:13;51.03;;;17.40;;
2618;SDS011;1319;52.346;13.096;2023-12-04T06:44:38;48.37;;;17.27;;
2618;SDS011;1319;52.346;13.096;2023-12-04T06:47:04;44.10;;;16.70;;
2618;SDS011;1319;52.346;13.096;2023-12-04T06:49:30;44.93;;;17.07;;
2618;SDS011;1319;52.346;13.096;2023-12-04T06:51:55;55.50;;;16.83;;
2618;SDS011;1319;52.346;13.096;2023-12-04T06:54:21;50.23;;;17.17;;
2618;SDS011;1319;52.346;13.096;2023-12-04T06:56:46;53.80;;;18.00;;
2618;SDS011;1319;52.346;13.096;2023-12-04T06:59:11;46.60;;;16.53;;
2618;SDS011;1319;52.346;13.096;2023-12-04T07:01:36;53.53;;;17.67;;
2618;SDS011;1319;52.346;13.096;2023-12-04T07:04:01;51.07;;;16.73;;
2618;SDS011;1319;52.346;13.096;2023-12-04T07:06:34;49.33;;;16.73;;
2618;SDS011;1319;52.346;13.096;2023-12-04T07:09:00;46.90;;;16.20;;
2618;SDS011;1319;52.346;13.096;2023-12-04T07:11:26;44.57;;;16.70;;
2618;SDS011;1319;52.346;13.096;2023-12-04T07:13:51;44.67;;;16.50;;
2618;SDS011;1319;52.346;13.096;2023-12-04T07:16:16;46.73;;;16.87;;
2618;SDS011;1319;52.346;13.096;2023-12-04T07:18:42;45.47;;;16.93;;
2618;SDS011;1319;52.346;13.096;2023-12-04T07:21:07;50.13;;;16.93;;
2618;SDS011;1319;52.346;13.096;2023-12-04T07:23:33;52.17;;;17.83;;
2618;SDS011;1319;52.346;13.096;2023-12-04T07:25:58;47.73;;;17.80;;
2618;SDS011;1319;52.346;13.096;2023-12-04T07:28:23;45.00;;;16.90;;
2618;SDS011;1319;52.346;13.096;2023-12-04T07:30:49;44.80;;;16.97;;
2618;SDS011;1319;52.346;13.096;2023-12-04T07:33:14;41.33;;;15.30;;
2618;SDS011;1319;52.346;13.096;2023-12-04T07:35:39;42.40;;;17.10;;
2618;SDS011;1319;52.346;13.096;2023-12-04T07:38:04;46.03;;;17.23;;
2618;SDS011;1319;52.346;13.096;2023-12-04T07:40:30;48.50;;;17.17;;
2618;SDS011;1319;52.346;13.096;2023-12-04T07:42:55;46.80;;;17.37;;
2618;SDS011;1319;52.346;13.096;2023-12-04T07:45:20;45.20;;;17.97;;
2618;SDS011;1319;52.346;13.096;2023-12-04T07:47:46;39.03;;;16.57;;
2618;SDS011;1319;52.346;13.096;2023-12-04T07:50:11;45.93;;;18.13;;
2618;SDS011;1319;52.346;13.096;2023-12-04T07:52:36;41.63;;;16.10;;
2618;SDS011;1319;52.346;13.096;2023-12-04T07:55:01;49.90;;;17.20;;
2618;SDS011;1319;52.346;13.096;2023-12-04T07:57:27;46.33;;;17.37;;
2618;SDS011;1319;52.346;13.096;2023-12-04T07:59:52;41.93;;;17.37;;
2618;SDS011;1319;52.346;13.096;2023-12-04T08:02:18;46.47;;;16.87;;
2618;SDS011;1319;52.346;13.096;2023-12-04T08:04:43;41.73;;;17.17;;
2618;SDS011;1319;52.346;13.096;2023-12-04T08:07:08;46.93;;;17.10;;
2618;SDS011;1319;52.346;13.096;2023-12-04T08:09:34;47.07;;;17.60;;
2618;SDS011;1319;52.346;13.096;2023-12-04T08:11:59;43.03;;;16.67;;
2618;SDS011;1319;52.346;13.096;2023-12-04T08:14:24;44.13;;;16.37;;
2618;SDS011;1319;52.346;13.096;2023-12-04T08:16:51;42.47;;;17.40;;
2618;SDS011;1319;52.346;13.096;2023-12-04T08:19:16;48.47;;;16.67;;
2618;SDS011;1319;52.346;13.096;2023-12-04T08:21:42;45.33;;;17.63;;
2618;SDS011;1319;52.346;13.096;2023-12-04T08:24:07;45.27;;;17.63;;
2618;SDS011;1319;52.346;13.096;2023-12-04T08:26:32;47.23;;;17.90;;
2618;SDS011;1319;52.346;13.096;2023-12-04T08:28:58;43.70;;;17.07;;
2618;SDS011;1319;52.346;13.096;2023-12-04T08:31:23;43.60;;;16.77;;
2618;SDS011;1319;52.346;13.096;2023-12-04T08:33:49;41.67;;;16.90;;
2618;SDS011;1319;52.346;13.096;2023-12-04T08:36:14;44.63;;;17.57;;
2618;SDS011;1319;52.346;13.096;2023-12-04T08:38:40;48.87;;;17.40;;
2618;SDS011;1319;52.346;13.096;2023-12-04T08:41:05;48.90;;;16.93;;
2618;SDS011;1319;52.346;13.096;2023-12-04T08:43:31;50.53;;;18.33;;
2618;SDS011;1319;52.346;13.096;2023-12-04T08:45:56;43.60;;;17.83;;
2618;SDS011;1319;52.346;13.096;2023-12-04T08:48:21;43.20;;;16.67;;
2618;SDS011;1319;52.346;13.096;2023-12-04T08:50:47;44.17;;;17.03;;
2618;SDS011;1319;52.346;13.096;2023-12-04T08:53:12;37.13;;;16.07;;
2618;SDS011;1319;52.346;13.096;2023-12-04T08:55:37;43.63;;;16.40;;
2618;SDS011;1319;52.346;13.096;2023-12-04T08:58:03;45.03;;;17.50;;
2618;SDS011;1319;52.346;13.096;2023-12-04T09:00:28;41.53;;;17.80;;
2618;SDS011;1319;52.346;13.096;2023-12-04T09:02:54;40.67;;;16.93;;
2618;SDS011;1319;52.346;13.096;2023-12-04T09:05:19;41.67;;;17.37;;
2618;SDS011;1319;52.346;13.096;2023-12-04T09:07:44;41.97;;;17.60;;
2618;SDS011;1319;52.346;13.096;2023-12-04T09:10:09;46.03;;;16.97;;
2618;SDS011;1319;52.346;13.096;2023-12-04T09:12:35;42.30;;;16.47;;
2618;SDS011;1319;52.346;13.096;2023-12-04T09:15:02;39.67;;;16.17;;
2618;SDS011;1319;52.346;13.096;2023-12-04T09:17:27;44.00;;;17.30;;
2618;SDS011;1319;52.346;13.096;2023-12-04T09:19:52;39.53;;;16.87;;
2618;SDS011;1319;52.346;13.096;2023-12-04T09:22:18;44.80;;;17.00;;
2618;SDS011;1319;52.346;13.096;2023-12-04T09:24:43;37.20;;;15.60;;
2618;SDS011;1319;52.346;13.096;2023-12-04T09:27:09;41.07;;;16.77;;
2618;SDS011;1319;52.346;13.096;2023-12-04T09:29:34;40.27;;;16.43;;
2618;SDS011;1319;52.346;13.096;2023-12-04T09:31:59;40.67;;;16.57;;
2618;SDS011;1319;52.346;13.096;2023-12-04T09:34:25;38.17;;;15.40;;
2618;SDS011;1319;52.346;13.096;2023-12-04T09:36:50;38.40;;;16.10;;
2618;SDS011;1319;52.346;13.096;2023-12-04T09:39:15;37.00;;;15.67;;
2618;SDS011;1319;52.346;13.096;2023-12-04T09:41:41;36.80;;;15.63;;
2618;SDS011;1319;52.346;13.096;2023-12-04T09:44:07;33.50;;;14.73;;
2618;SDS011;1319;52.346;13.096;2023-12-04T09:46:33;38.97;;;16.03;;
2618;SDS011;1319;52.346;13.096;2023-12-04T09:48:58;33.67;;;15.27;;
2618;SDS011;1319;52.346;13.096;2023-12-04T09:51:24;33.53;;;15.50;;
2618;SDS011;1319;52.346;13.096;2023-12-04T09:53:50;36.87;;;16.67;;
2618;SDS011;1319;52.346;13.096;2023-12-04T09:56:17;35.67;;;15.30;;
2618;SDS011;1319;52.346;13.096;2023-12-04T09:58:43;33.47;;;15.30;;
2618;SDS011;1319;52.346;13.096;2023-12-04T10:01:09;33.30;;;14.90;;
2618;SDS011;1319;52.346;13.096;2023-12-04T10:03:36;34.60;;;14.93;;
2618;SDS011;1319;52.346;13.096;2023-12-04T10:06:01;36.03;;;14.67;;
2618;SDS011;1319;52.346;13.096;2023-12-04T10:08:27;38.10;;;15.07;;
2618;SDS011;1319;52.346;13.096;2023-12-04T10:10:52;33.03;;;14.33;;
2618;SDS011;1319;52.346;13.096;2023-12-04T10:13:17;34.00;;;14.97;;
2618;SDS011;1319;52.346;13.096;2023-12-04T10:15:46;33.87;;;14.43;;
2618;SDS011;1319;52.346;13.096;2023-12-04T10:18:23;31.20;;;13.93;;
2618;SDS011;1319;52.346;13.096;2023-12-04T10:20:52;27.90;;;13.70;;
2618;SDS011;1319;52.346;13.096;2023-12-04T10:23:18;27.93;;;13.67;;
2618;SDS011;1319;52.346;13.096;2023-12-04T10:25:45;30.23;;;13.30;;
2618;SDS011;1319;52.346;13.096;2023-12-04T10:28:12;26.93;;;13.33;;
2618;SDS011;1319;52.346;13.096;2023-12-04T10:30:37;27.73;;;12.27;;
2618;SDS011;1319;52.346;13.096;2023-12-04T10:33:04;29.53;;;13.70;;
2618;SDS011;1319;52.346;13.096;2023-12-04T10:35:30;31.00;;;13.33;;
2618;SDS011;1319;52.346;13.096;2023-12-04T10:37:56;27.93;;;13.70;;
2618;SDS011;1319;52.346;13.096;2023-12-04T10:40:25;28.27;;;12.73;;
2618;SDS011;1319;52.346;13.096;2023-12-04T10:42:50;28.33;;;13.60;;
2618;SDS011;1319;52.346;13.096;2023-12-04T10:45:16;28.73;;;12.53;;
2618;SDS011;1319;52.346;13.096;2023-12-04T10:47:41;28.67;;;12.63;;
2618;SDS011;1319;52.346;13.096;2023-12-04T10:50:09;30.67;;;12.93;;
2618;SDS011;1319;52.346;13.096;2023-12-04T10:52:34;25.50;;;12.20;;
2618;SDS011;1319;52.346;13.096;2023-12-04T10:55:01;24.87;;;11.77;;
2618;SDS011;1319;52.346;13.096;2023-12-04T10:57:27;26.07;;;11.87;;
2618;SDS011;1319;52.346;13.096;2023-12-04T10:59:57;28.20;;;12.80;;
2618;SDS011;1319;52.346;13.096;2023-12-04T11:02:23;27.43;;;11.83;;
2618;SDS011;1319;52.346;13.096;2023-12-04T11:04:51;24.53;;;12.43;;
2618;SDS011;1319;52.346;13.096;2023-12-04T11:07:19;21.87;;;11.93;;
2618;SDS011;1319;52.346;13.096;2023-12-04T11:09:45;24.57;;;11.57;;
2618;SDS011;1319;52.346;13.096;2023-12-04T11:12:14;26.77;;;11.80;;
2618;SDS011;1319;52.346;13.096;2023-12-04T11:14:46;25.17;;;12.03;;
2618;SDS011;1319;52.346;13.096;2023-12-04T11:17:12;22.50;;;11.57;;
2618;SDS011;1319;52.346;13.096;2023-12-04T11:19:55;25.17;;;11.47;;
2618;SDS011;1319;52.346;13.096;2023-12-04T11:22:23;23.47;;;11.23;;
2618;SDS011;1319;52.346;13.096;2023-12-04T11:24:50;22.77;;;11.77;;
2618;SDS011;1319;52.346;13.096;2023-12-04T11:27:19;26.40;;;11.03;;
2618;SDS011;1319;52.346;13.096;2023-12-04T11:29:45;22.07;;;10.23;;
2618;SDS011;1319;52.346;13.096;2023-12-04T11:32:15;24.20;;;11.27;;
2618;SDS011;1319;52.346;13.096;2023-12-04T11:34:50;21.07;;;11.10;;
2618;SDS011;1319;52.346;13.096;2023-12-04T11:37:17;21.10;;;11.00;;
2618;SDS011;1319;52.346;13.096;2023-12-04T11:39:42;25.10;;;11.13;;
2618;SDS011;1319;52.346;13.096;2023-12-04T11:42:09;22.47;;;10.87;;
2618;SDS011;1319;52.346;13.096;2023-12-04T11:44:34;22.47;;;11.23;;
2618;SDS011;1319;52.346;13.096;2023-12-04T11:47:04;22.23;;;10.57;;
2618;SDS011;1319;52.346;13.096;2023-12-04T11:49:30;21.23;;;10.33;;
2618;SDS011;1319;52.346;13.096;2023-12-04T11:51:59;22.67;;;10.43;;
2618;SDS011;1319;52.346;13.096;2023-12-04T11:54:26;21.43;;;10.87;;
2618;SDS011;1319;52.346;13.096;2023-12-04T11:57:19;22.63;;;10.73;;
2618;SDS011;1319;52.346;13.096;2023-12-04T11:59:45;20.83;;;10.53;;
2618;SDS011;1319;52.346;13.096;2023-12-04T12:02:11;21.30;;;10.60;;
2618;SDS011;1319;52.346;13.096;2023-12-04T12:04:38;21.70;;;10.87;;
2618;SDS011;1319;52.346;13.096;2023-12-04T12:07:07;21.83;;;10.60;;
2618;SDS011;1319;52.346;13.096;2023-12-04T12:09:32;22.20;;;10.90;;
2618;SDS011;1319;52.346;13.096;2023-12-04T12:12:01;20.90;;;9.83;;
2618;SDS011;1319;52.346;13.096;2023-12-04T12:14:26;20.77;;;10.40;;
2618;SDS011;1319;52.346;13.096;2023-12-04T12:16:54;23.20;;;10.40;;
2618;SDS011;1319;52.346;13.096;2023-12-04T12:19:19;26.50;;;10.57;;
2618;SDS011;1319;52.346;13.096;2023-12-04T12:21:44;20.83;;;10.30;;
2618;SDS011;1319;52.346;13.096;2023-12-04T12:24:11;21.60;;;10.93;;
2618;SDS011;1319;52.346;13.096;2023-12-04T12:26:36;21.03;;;11.03;;
2618;SDS011;1319;52.346;13.096;2023-12-04T12:29:02;20.60;;;10.20;;
2618;SDS011;1319;52.346;13.096;2023-12-04T12:31:27;21.30;;;10.07;;
2618;SDS011;1319;52.346;13.096;2023-12-04T12:33:53;23.17;;;10.50;;
2618;SDS011;1319;52.346;13.096;2023-12-04T12:36:20;21.70;;;10.53;;
2618;SDS011;1319;52.346;13.096;2023-12-04T12:38:45;17.63;;;8.80;;
2618;SDS011;1319;52.346;13.096;2023-12-04T12:41:16;20.07;;;10.27;;
2618;SDS011;1319;52.346;13.096;2023-12-04T12:43:41;20.67;;;10.20;;
2618;SDS011;1319;52.346;13.096;2023-12-04T12:46:07;19.67;;;9.80;;
2618;SDS011;1319;52.346;13.096;2023-12-04T12:48:32;18.87;;;9.57;;
2618;SDS011;1319;52.346;13.096;2023-12-04T12:50:57;20.07;;;9.43;;
2618;SDS011;1319;52.346;13.096;2023-12-04T12:53:23;19.03;;;9.60;;
2618;SDS011;1319;52.346;13.096;2023-12-04T12:55:48;18.63;;;9.67;;
2618;SDS011;1319;52.346;13.096;2023-12-04T12:58:14;21.97;;;9.87;;
2618;SDS011;1319;52.346;13.096;2023-12-04T13:00:40;18.47;;;9.50;;
2618;SDS011;1319;52.346;13.096;2023-12-04T13:03:14;19.47;;;9.10;;
2618;SDS011;1319;52.346;13.096;2023-12-04T13:05:40;20.93;;;9.50;;
2618;SDS011;1319;52.346;13.096;2023-12-04T13:08:05;20.50;;;9.43;;
2618;SDS011;1319;52.346;13.096;2023-12-04T13:10:30;18.43;;;9.60;;
2618;SDS011;1319;52.346;13.096;2023-12-04T13:12:55;16.37;;;9.13;;
2618;SDS011;1319;52.346;13.096;2023-12-04T13:15:22;17.83;;;9.90;;
2618;SDS011;1319;52.346;13.096;2023-12-04T13:17:47;19.17;;;8.83;;
2618;SDS011;1319;52.346;13.096;2023-12-04T13:20:13;19.43;;;9.47;;
2618;SDS011;1319;52.346;13.096;2023-12-04T13:22:39;16.73;;;9.00;;
2618;SDS011;1319;52.346;13.096;2023-12-04T13:25:04;20.13;;;9.40;;
2618;SDS011;1319;52.346;13.096;2023-12-04T13:27:32;17.23;;;9.13;;
2618;SDS011;1319;52.346;13.096;2023-12-04T13:29:58;18.60;;;9.60;;
2618;SDS011;1319;52.346;13.096;2023-12-04T13:32:23;19.77;;;9.07;;
2618;SDS011;1319;52.346;13.096;2023-12-04T13:34:48;16.50;;;8.23;;
2618;SDS011;1319;52.346;13.096;2023-12-04T13:37:13;17.00;;;8.40;;
2618;SDS011;1319;52.346;13.096;2023-12-04T13:39:39;17.17;;;8.83;;
2618;SDS011;1319;52.346;13.096;2023-12-04T13:42:13;18.33;;;8.67;;
2618;SDS011;1319;52.346;13.096;2023-12-04T13:44:56;16.77;;;9.07;;
2618;SDS011;1319;52.346;13.096;2023-12-04T13:47:21;15.77;;;8.33;;
2618;SDS011;1319;52.346;13.096;2023-12-04T13:49:47;17.63;;;9.27;;
2618;SDS011;1319;52.346;13.096;2023-12-04T13:52:12;18.30;;;9.70;;
2618;SDS011;1319;52.346;13.096;2023-12-04T13:54:37;18.47;;;10.10;;
2618;SDS011;1319;52.346;13.096;2023-12-04T13:57:23;18.63;;;9.30;;
2618;SDS011;1319;52.346;13.096;2023-12-04T14:00:01;17.87;;;9.57;;
2618;SDS011;1319;52.346;13.096;2023-12-04T14:02:26;19.17;;;9.60;;
2618;SDS011;1319;52.346;13.096;2023-12-04T14:04:52;18.60;;;9.50;;
2618;SDS011;1319;52.346;13.096;2023-12-04T14:07:17;20.20;;;10.30;;
2618;SDS011;1319;52.346;13.096;2023-12-04T14:09:43;21.30;;;10.23;;
2618;SDS011;1319;52.346;13.096;2023-12-04T14:12:09;20.90;;;10.77;;
2618;SDS011;1319;52.346;13.096;2023-12-04T14:14:35;21.73;;;10.57;;
2618;SDS011;1319;52.346;13.096;2023-12-04T14:17:02;20.50;;;10.17;;
2618;SDS011;1319;52.346;13.096;2023-12-04T14:19:29;18.53;;;10.23;;
2618;SDS011;1319;52.346;13.096;2023-12-04T14:21:54;22.47;;;10.33;;
2618;SDS011;1319;52.346;13.096;2023-12-04T14:24:19;18.17;;;10.13;;
2618;SDS011;1319;52.346;13.096;2023-12-04T14:26:46;21.43;;;10.60;;
2618;SDS011;1319;52.346;13.096;2023-12-04T14:29:11;20.33;;;10.33;;